Time;durP1;ratioP1;P1;durP2;ratioP2;P2;SDS_P1;SDS_P2;PMS_P1;PMS_P2;Temp;Humidity;BMP_temperature;BMP_pressure;BME280_temperature;BME280_humidity;BME280_pressure;Samples;Min_cycle;Max_cycle;Signal;HPM_P1;HPM_P2
2023/10/18 00:02:16;;;;;;;6.47;5.83;;;5.70;1.00;;;;;;5031868;28;21005;-65
2023/10/18 00:04:44;;;;;;;7.03;5.33;;;5.70;1.00;;;;;;5030884;28;20457;-65
2023/10/18 00:07:12;;;;;;;5.90;4.80;;;5.60;1.00;;;;;;5032895;28;20791;-65
2023/10/18 00:09:42;;;;;;;5.87;5.27;;;5.70;1.00;;;;;;5032766;28;20430;-66
2023/10/18 00:12:08;;;;;;;6.10;5.50;;;5.70;1.00;;;;;;5032345;28;20528;-64
2023/10/18 00:14:34;;;;;;;5.00;4.50;;;5.70;1.00;;;;;;5031991;28;20899;-67
2023/10/18 00:17:00;;;;;;;11.13;5.63;;;5.70;1.00;;;;;;5032829;28;20206;-65
2023/10/18 00:19:26;;;;;;;5.70;5.20;;;5.70;2.80;;;;;;5031726;28;20434;-67
2023/10/18 00:21:55;;;;;;;6.40;5.60;;;5.70;4.60;;;;;;5031286;28;20452;-64
2023/10/18 00:24:21;;;;;;;5.77;5.33;;;5.70;6.80;;;;;;5032818;28;20517;-65
2023/10/18 00:26:46;;;;;;;6.30;5.70;;;5.70;8.70;;;;;;5031879;28;20422;-65
2023/10/18 00:29:12;;;;;;;5.73;5.20;;;5.70;8.80;;;;;;5015048;28;20168;-65
2023/10/18 00:31:38;;;;;;;6.10;5.40;;;5.60;11.70;;;;;;5031979;28;20191;-67
2023/10/18 00:34:05;;;;;;;6.20;5.67;;;5.70;9.10;;;;;;5034270;28;20175;-65
2023/10/18 00:36:32;;;;;;;6.97;5.23;;;5.70;10.70;;;;;;5035655;28;20426;-67
2023/10/18 00:38:58;;;;;;;6.00;5.20;;;5.70;11.80;;;;;;5036701;28;20477;-66
2023/10/18 00:41:32;;;;;;;6.10;5.50;;;5.60;11.00;;;;;;5036708;28;20485;-64
2023/10/18 00:43:58;;;;;;;8.90;5.80;;;5.60;11.50;;;;;;5036590;28;20313;-66
2023/10/18 00:46:26;;;;;;;7.30;6.43;;;5.60;14.00;;;;;;5035481;28;20432;-65
2023/10/18 00:48:52;;;;;;;6.27;5.67;;;5.70;16.10;;;;;;5036031;28;20410;-67
2023/10/18 00:51:19;;;;;;;6.13;5.60;;;5.70;16.40;;;;;;5036304;28;20419;-64
2023/10/18 00:53:46;;;;;;;8.00;5.13;;;5.60;15.10;;;;;;5036403;28;20485;-65
2023/10/18 00:56:15;;;;;;;5.93;5.40;;;5.60;15.40;;;;;;5035374;28;20422;-66
2023/10/18 00:58:41;;;;;;;5.80;5.20;;;5.60;16.10;;;;;;5036375;28;20386;-65
2023/10/18 01:01:10;;;;;;;7.33;5.73;;;5.60;16.60;;;;;;5036221;28;20957;-65
2023/10/18 01:03:42;;;;;;;7.10;5.80;;;5.60;14.20;;;;;;5035145;28;20422;-66
2023/10/18 01:06:12;;;;;;;7.47;5.40;;;5.50;14.10;;;;;;5034532;28;20586;-65
2023/10/18 01:08:38;;;;;;;11.23;7.00;;;5.50;13.60;;;;;;5036300;28;20752;-64
2023/10/18 01:11:10;;;;;;;10.07;6.00;;;5.50;13.70;;;;;;5036017;28;20446;-64
2023/10/18 01:13:42;;;;;;;7.20;5.60;;;5.50;12.70;;;;;;5036053;28;20380;-66
2023/10/18 01:16:15;;;;;;;5.40;4.93;;;5.50;11.10;;;;;;5034984;28;20426;-66
2023/10/18 01:18:43;;;;;;;6.20;5.37;;;5.40;10.60;;;;;;5036044;28;20395;-65
2023/10/18 01:21:13;;;;;;;5.07;4.70;;;5.40;8.70;;;;;;5035918;28;20402;-65
2023/10/18 01:23:41;;;;;;;7.03;5.53;;;5.40;6.20;;;;;;5035834;28;20403;-66
2023/10/18 01:26:08;;;;;;;6.27;5.70;;;5.40;4.70;;;;;;5034491;28;20414;-64
2023/10/18 01:28:34;;;;;;;7.27;5.20;;;5.40;2.20;;;;;;5035632;28;20409;-65
2023/10/18 01:31:00;;;;;;;6.30;5.73;;;5.30;1.00;;;;;;5035688;28;20954;-65
2023/10/18 01:33:26;;;;;;;13.30;5.77;;;5.30;1.00;;;;;;5035810;28;20164;-65
2023/10/18 01:35:53;;;;;;;8.30;5.77;;;5.30;1.00;;;;;;5034735;28;20223;-64
2023/10/18 01:38:23;;;;;;;5.20;4.70;;;5.20;1.00;;;;;;5035487;28;20402;-65
2023/10/18 01:40:53;;;;;;;5.93;5.47;;;5.20;1.00;;;;;;5035125;28;20398;-67
2023/10/18 01:43:19;;;;;;;12.60;6.03;;;5.20;1.00;;;;;;5035568;28;20788;-64
2023/10/18 01:45:48;;;;;;;10.47;5.73;;;5.20;1.00;;;;;;5033767;28;20432;-65
2023/10/18 01:48:17;;;;;;;5.63;5.13;;;5.20;1.00;;;;;;5035402;28;20409;-66
2023/10/18 01:50:44;;;;;;;5.53;5.00;;;5.10;1.00;;;;;;5035348;28;20910;-64
2023/10/18 01:53:16;;;;;;;5.80;5.30;;;5.10;1.00;;;;;;5035324;28;20411;-65
2023/10/18 01:55:53;;;;;;;5.60;5.20;;;5.10;1.00;;;;;;5034205;28;20391;-64
2023/10/18 01:58:24;;;;;;;6.40;5.80;;;5.10;1.00;;;;;;5034948;28;20404;-69
2023/10/18 02:00:53;;;;;;;5.87;5.37;;;5.10;1.00;;;;;;5034945;28;20555;-64
2023/10/18 02:03:19;;;;;;;4.90;4.60;;;5.10;1.00;;;;;;5035207;28;20437;-66
2023/10/18 02:05:47;;;;;;;5.87;5.27;;;5.10;1.00;;;;;;5034099;28;20426;-64
2023/10/18 02:08:12;;;;;;;5.60;5.10;;;5.10;1.00;;;;;;5034962;28;20460;-69
2023/10/18 02:10:42;;;;;;;7.67;5.37;;;5.10;1.00;;;;;;5034857;28;20402;-65
2023/10/18 02:13:10;;;;;;;5.50;4.90;;;5.10;1.00;;;;;;5034999;28;20675;-65
2023/10/18 02:15:39;;;;;;;6.23;5.77;;;5.10;1.00;;;;;;5034088;28;20401;-65
2023/10/18 02:18:06;;;;;;;6.07;5.30;;;5.10;1.00;;;;;;5034422;28;20398;-64
2023/10/18 02:20:35;;;;;;;7.20;5.43;;;5.10;1.00;;;;;;5033475;28;20410;-66
2023/10/18 02:23:01;;;;;;;10.50;5.63;;;5.10;1.00;;;;;;5034746;28;20405;-65
2023/10/18 02:25:44;;;;;;;6.30;5.70;;;5.10;1.00;;;;;;5034003;28;20403;-65
2023/10/18 02:28:25;;;;;;;6.60;5.67;;;5.10;1.00;;;;;;5033496;28;20453;-65
2023/10/18 02:33:36;;;;;;;8.20;6.20;;;5.10;1.00;;;;;;5034394;28;20414;-64
2023/10/18 02:36:06;;;;;;;7.57;6.80;;;5.10;2.00;;;;;;5033413;28;20504;-65
2023/10/18 02:38:33;;;;;;;7.30;6.27;;;5.10;2.70;;;;;;5034394;28;20472;-66
2023/10/18 02:41:01;;;;;;;6.57;6.07;;;5.10;3.10;;;;;;5034411;28;20444;-65
2023/10/18 02:43:29;;;;;;;7.00;6.13;;;5.10;2.90;;;;;;5034495;28;20770;-64
2023/10/18 02:45:54;;;;;;;6.37;5.30;;;5.10;2.30;;;;;;5032023;28;20440;-65
2023/10/18 02:48:24;;;;;;;6.90;6.27;;;5.10;1.50;;;;;;5034277;28;20875;-65
2023/10/18 02:50:57;;;;;;;11.13;6.83;;;5.00;1.80;;;;;;5033566;28;20195;-66
2023/10/18 02:53:23;;;;;;;10.70;6.70;;;5.10;3.80;;;;;;5034239;28;20406;-64
2023/10/18 02:55:55;;;;;;;5.67;5.17;;;5.10;5.20;;;;;;5033232;28;20452;-65
2023/10/18 02:58:22;;;;;;;6.60;5.80;;;5.10;6.90;;;;;;5032980;28;20478;-64
2023/10/18 03:00:50;;;;;;;6.33;5.83;;;5.10;7.20;;;;;;5032811;28;20441;-64
2023/10/18 03:03:15;;;;;;;10.77;5.90;;;5.10;8.00;;;;;;5034049;28;20426;-64
2023/10/18 03:05:42;;;;;;;7.20;6.07;;;5.10;7.80;;;;;;5032999;28;20925;-64
2023/10/18 03:08:10;;;;;;;6.43;5.83;;;5.10;8.10;;;;;;5032166;28;20254;-66
2023/10/18 03:10:44;;;;;;;8.77;6.40;;;5.10;8.10;;;;;;5032542;28;20417;-65
2023/10/18 03:13:13;;;;;;;6.47;5.90;;;5.10;8.30;;;;;;5032480;28;20783;-63
2023/10/18 03:15:54;;;;;;;8.13;6.30;;;5.10;8.30;;;;;;5032891;28;20492;-64
2023/10/18 03:18:25;;;;;;;6.33;5.73;;;5.10;9.30;;;;;;5033800;28;20413;-64
2023/10/18 03:20:57;;;;;;;6.70;6.20;;;5.10;14.60;;;;;;5032454;28;20922;-67
2023/10/18 03:23:26;;;;;;;8.97;6.93;;;5.20;20.20;;;;;;5033586;28;20786;-64
2023/10/18 03:26:07;;;;;;;7.23;6.57;;;5.30;25.20;;;;;;5032624;28;20425;-64
2023/10/18 03:28:36;;;;;;;7.80;7.20;;;5.30;32.80;;;;;;5033085;28;20398;-65
2023/10/18 03:31:12;;;;;;;8.90;7.23;;;5.40;44.40;;;;;;5033320;28;20449;-65
2023/10/18 03:33:38;;;;;;;7.33;6.63;;;5.50;54.40;;;;;;5033872;28;20739;-65
2023/10/18 03:36:09;;;;;;;8.60;7.70;;;5.60;64.50;;;;;;5032613;28;20444;-67
2023/10/18 03:38:41;;;;;;;9.30;7.90;;;5.70;72.30;;;;;;5033392;28;20160;-65
2023/10/18 03:41:10;;;;;;;14.30;7.83;;;5.70;80.80;;;;;;5033388;28;20853;-64
2023/10/18 03:43:36;;;;;;;9.13;8.20;;;5.70;90.00;;;;;;5033272;28;20406;-64
2023/10/18 03:46:29;;;;;;;9.27;8.30;;;5.80;90.90;;;;;;5031785;28;20818;-65
2023/10/18 03:48:56;;;;;;;9.93;7.00;;;5.80;91.00;;;;;;5033234;28;20530;-68
2023/10/18 03:51:24;;;;;;;7.87;7.10;;;5.80;91.00;;;;;;5031868;28;20843;-67
2023/10/18 03:53:55;;;;;;;12.37;8.43;;;5.90;91.00;;;;;;5033169;28;20480;-64
2023/10/18 03:56:23;;;;;;;9.20;8.30;;;5.90;91.00;;;;;;5032195;28;20433;-67
2023/10/18 03:58:53;;;;;;;10.00;8.67;;;5.80;90.90;;;;;;5033154;28;20417;-64
2023/10/18 04:01:22;;;;;;;18.23;7.90;;;5.80;91.00;;;;;;5033056;28;20440;-65
2023/10/18 04:03:49;;;;;;;9.30;8.40;;;5.80;90.90;;;;;;5032468;28;20460;-64
2023/10/18 04:06:23;;;;;;;10.77;8.67;;;5.90;91.00;;;;;;5031983;28;20438;-65
2023/10/18 04:08:49;;;;;;;10.80;8.40;;;5.80;90.90;;;;;;5032715;28;20793;-65
2023/10/18 04:11:14;;;;;;;10.40;8.83;;;5.80;86.20;;;;;;5031526;28;20449;-65
2023/10/18 04:13:41;;;;;;;12.73;8.83;;;5.80;84.50;;;;;;5032828;28;20424;-66
2023/10/18 04:16:11;;;;;;;15.43;9.30;;;5.70;77.80;;;;;;5032066;28;20179;-64
2023/10/18 04:18:41;;;;;;;11.50;8.70;;;5.70;77.70;;;;;;5032925;28;20485;-65
2023/10/18 04:21:13;;;;;;;9.70;7.80;;;5.70;77.70;;;;;;5032573;28;20410;-64
2023/10/18 04:23:38;;;;;;;12.00;9.50;;;5.80;80.90;;;;;;5032319;28;20395;-64
2023/10/18 04:26:10;;;;;;;9.57;8.57;;;5.80;82.00;;;;;;5031883;28;20501;-64
2023/10/18 04:28:39;;;;;;;9.67;8.63;;;5.80;83.30;;;;;;5031477;28;20540;-64
2023/10/18 04:31:11;;;;;;;9.17;8.37;;;5.80;82.30;;;;;;5032651;28;20449;-64
2023/10/18 04:33:48;;;;;;;9.80;8.13;;;5.80;81.00;;;;;;5032636;28;20402;-67
2023/10/18 04:36:15;;;;;;;14.67;9.07;;;5.90;79.10;;;;;;5031685;28;20418;-67
2023/10/18 04:38:44;;;;;;;11.40;8.80;;;5.80;76.80;;;;;;5032829;28;20402;-64
2023/10/18 04:41:24;;;;;;;10.93;8.63;;;5.80;72.70;;;;;;5031111;28;20406;-67
2023/10/18 04:43:50;;;;;;;11.63;8.43;;;5.80;70.30;;;;;;5032362;28;20428;-65
2023/10/18 04:46:18;;;;;;;9.77;8.77;;;5.80;69.20;;;;;;5031636;28;20509;-67
2023/10/18 04:51:27;;;;;;;13.47;8.67;;;5.80;67.50;;;;;;5032547;28;20840;-65
2023/10/18 04:54:00;;;;;;;9.63;8.63;;;5.80;70.50;;;;;;5032446;28;20417;-65
2023/10/18 04:56:31;;;;;;;10.20;9.20;;;5.90;72.20;;;;;;5031537;28;20418;-65
2023/10/18 04:59:29;;;;;;;10.03;8.40;;;5.90;73.70;;;;;;5032425;28;20740;-65
2023/10/18 05:04:25;;;;;;;9.47;8.27;;;5.90;72.40;;;;;;5032306;28;20402;-66
2023/10/18 05:06:55;;;;;;;11.40;8.67;;;5.90;71.40;;;;;;5031759;28;20202;-68
2023/10/18 05:09:32;;;;;;;11.10;9.17;;;5.80;70.40;;;;;;5032473;28;20926;-65
2023/10/18 05:11:59;;;;;;;9.87;8.60;;;5.90;68.90;;;;;;5032269;28;20453;-65
2023/10/18 05:14:42;;;;;;;11.80;9.20;;;5.80;65.20;;;;;;5032188;28;20455;-65
2023/10/18 05:17:21;;;;;;;9.00;8.10;;;5.80;61.60;;;;;;5032249;28;20479;-65
2023/10/18 05:19:48;;;;;;;10.60;9.03;;;5.70;53.60;;;;;;5030978;28;20461;-68
2023/10/18 05:22:23;;;;;;;15.40;9.70;;;5.60;53.40;;;;;;5034922;28;20401;-65
2023/10/18 05:28:28;;;;;;;17.90;9.40;;;5.60;52.90;;;;;;5035758;28;20437;-64
2023/10/18 05:43:59;;;;;;;16.17;9.57;;;5.50;48.30;;;;;;5035521;28;20404;-63
2023/10/18 05:46:29;;;;;;;12.47;9.60;;;5.50;49.60;;;;;;5034451;28;20410;-65
2023/10/18 05:48:55;;;;;;;13.80;9.70;;;5.50;48.20;;;;;;5035503;28;20827;-67
2023/10/18 05:53:59;;;;;;;14.27;9.77;;;5.50;52.90;;;;;;5035268;28;20733;-64
2023/10/18 05:56:32;;;;;;;12.10;8.90;;;5.50;52.90;;;;;;5033012;28;20441;-64
2023/10/18 06:01:42;;;;;;;11.67;9.07;;;5.60;63.70;;;;;;5034634;28;20509;-65
2023/10/18 06:04:08;;;;;;;16.87;10.00;;;5.60;65.60;;;;;;5035173;28;20410;-64
2023/10/18 06:06:37;;;;;;;15.60;9.23;;;5.60;66.80;;;;;;5034001;28;20996;-64
2023/10/18 06:09:10;;;;;;;11.87;8.80;;;5.60;67.30;;;;;;5035015;28;20163;-63
2023/10/18 06:11:38;;;;;;;10.60;7.83;;;5.60;67.80;;;;;;5034899;28;20474;-65
2023/10/18 06:14:16;;;;;;;10.27;7.80;;;5.60;67.20;;;;;;5034962;28;20413;-65
2023/10/18 06:16:42;;;;;;;10.60;8.30;;;5.60;65.20;;;;;;5033933;28;20417;-64
2023/10/18 06:19:13;;;;;;;13.87;8.50;;;5.70;66.80;;;;;;5034271;28;20791;-66
2023/10/18 06:21:49;;;;;;;8.20;7.23;;;5.70;67.20;;;;;;5034830;28;20406;-66
2023/10/18 06:24:16;;;;;;;15.43;8.70;;;5.70;67.30;;;;;;5034789;28;20418;-64
2023/10/18 06:26:44;;;;;;;9.07;8.13;;;5.70;65.50;;;;;;5033625;28;20934;-65
2023/10/18 06:29:11;;;;;;;10.17;8.33;;;5.70;64.40;;;;;;5034609;28;20883;-64
2023/10/18 06:31:43;;;;;;;10.40;8.47;;;5.70;63.50;;;;;;5034361;28;20450;-66
2023/10/18 06:34:17;;;;;;;9.43;8.23;;;5.80;63.90;;;;;;5034630;28;20407;-65
2023/10/18 06:36:52;;;;;;;8.73;7.67;;;5.80;62.30;;;;;;5031890;28;20434;-66
2023/10/18 06:39:25;;;;;;;8.60;7.70;;;5.80;61.20;;;;;;5034464;28;20452;-64
2023/10/18 06:41:57;;;;;;;13.33;8.73;;;5.70;54.10;;;;;;5033103;28;20452;-65
2023/10/18 06:44:30;;;;;;;8.60;7.70;;;5.70;53.70;;;;;;5034224;28;20430;-74
2023/10/18 06:46:57;;;;;;;9.10;7.37;;;5.70;53.20;;;;;;5033876;28;20434;-67
2023/10/18 06:49:26;;;;;;;14.70;7.50;;;5.70;53.10;;;;;;5034249;28;20493;-67
2023/10/18 06:51:52;;;;;;;8.00;7.07;;;5.70;56.00;;;;;;5034232;28;20442;-66
2023/10/18 06:54:30;;;;;;;10.63;7.83;;;5.70;59.20;;;;;;5033973;28;20426;-64
2023/10/18 06:56:57;;;;;;;14.27;7.60;;;5.80;61.70;;;;;;5033401;28;20426;-65
2023/10/18 06:59:28;;;;;;;8.20;7.50;;;5.80;64.50;;;;;;5034262;28;20482;-64
2023/10/18 07:02:00;;;;;;;11.20;8.10;;;5.80;68.10;;;;;;5034044;28;20926;-65
2023/10/18 07:04:35;;;;;;;13.63;8.27;;;5.90;75.40;;;;;;5033744;28;20755;-66
2023/10/18 07:07:19;;;;;;;8.03;7.23;;;6.00;81.70;;;;;;5033825;28;20445;-64
2023/10/18 07:09:46;;;;;;;10.13;8.00;;;6.00;83.30;;;;;;5033891;28;20468;-64
2023/10/18 07:12:11;;;;;;;13.43;7.33;;;6.10;84.00;;;;;;5032663;28;20499;-67
2023/10/18 07:14:38;;;;;;;10.37;7.27;;;6.20;84.10;;;;;;5032315;28;20481;-65
2023/10/18 07:17:04;;;;;;;9.80;7.60;;;6.10;83.30;;;;;;5033648;28;20184;-65
2023/10/18 07:19:33;;;;;;;13.20;8.00;;;6.10;82.10;;;;;;5033873;28;20783;-64
2023/10/18 07:22:06;;;;;;;12.00;9.47;;;6.20;81.80;;;;;;5033711;28;20434;-64
2023/10/18 07:24:32;;;;;;;10.40;8.00;;;6.30;86.80;;;;;;5032862;28;20402;-74
2023/10/18 07:27:03;;;;;;;13.13;8.97;;;6.40;91.10;;;;;;5033160;28;20509;-65
2023/10/18 07:29:31;;;;;;;9.03;6.97;;;6.50;91.20;;;;;;5033674;28;20398;-65
2023/10/18 07:31:59;;;;;;;7.43;6.70;;;6.60;90.00;;;;;;5033302;28;20446;-66
2023/10/18 07:34:28;;;;;;;14.57;7.20;;;6.70;88.50;;;;;;5031535;28;20502;-65
2023/10/18 07:36:55;;;;;;;7.23;5.63;;;6.80;87.30;;;;;;5031409;28;20430;-66
2023/10/18 07:39:24;;;;;;;8.03;5.50;;;6.80;81.60;;;;;;5033343;28;20412;-65
2023/10/18 07:41:53;;;;;;;6.50;5.90;;;6.90;79.90;;;;;;5033291;28;20402;-65
2023/10/18 07:44:19;;;;;;;8.57;5.70;;;7.00;77.70;;;;;;5032811;28;20493;-65
2023/10/18 07:46:45;;;;;;;7.13;5.80;;;7.10;74.40;;;;;;5032333;28;20501;-64
2023/10/18 07:49:15;;;;;;;8.63;5.93;;;7.10;74.70;;;;;;5031900;28;20420;-65
2023/10/18 07:51:48;;;;;;;9.20;6.30;;;7.20;75.10;;;;;;5032795;28;20461;-65
2023/10/18 07:54:20;;;;;;;6.17;5.10;;;7.30;74.50;;;;;;5031927;28;20468;-64
2023/10/18 07:56:49;;;;;;;6.40;5.90;;;7.40;72.10;;;;;;5032234;28;20422;-64
2023/10/18 07:59:31;;;;;;;5.10;4.60;;;7.40;68.00;;;;;;5032981;28;20403;-65
2023/10/18 08:04:44;;;;;;;6.33;4.80;;;7.60;56.10;;;;;;5032369;28;20438;-64
2023/10/18 08:07:15;;;;;;;6.40;5.10;;;7.80;50.60;;;;;;5032857;28;20415;-68
2023/10/18 08:09:42;;;;;;;9.50;5.00;;;7.90;48.60;;;;;;5032821;28;20629;-65
2023/10/18 08:12:19;;;;;;;7.03;5.70;;;8.00;45.00;;;;;;5032466;28;20438;-65
2023/10/18 08:14:47;;;;;;;4.53;4.10;;;8.10;40.00;;;;;;5032075;28;20894;-65
2023/10/18 08:22:45;;;;;;;3.90;3.60;;;8.40;26.20;;;;;;5033225;28;20402;-65
2023/10/18 08:25:22;;;;;;;4.13;3.77;;;8.50;22.90;;;;;;5031920;28;20464;-65
2023/10/18 08:27:54;;;;;;;4.13;3.40;;;8.60;11.00;;;;;;5032372;28;20466;-65
2023/10/18 08:33:08;;;;;;;5.50;4.60;;;8.90;1.00;;;;;;5032679;28;20496;-65
2023/10/18 08:35:34;;;;;;;3.20;2.90;;;9.10;1.00;;;;;;5031704;28;20369;-67
2023/10/18 08:38:03;;;;;;;3.90;3.10;;;9.20;1.00;;;;;;5031485;28;20388;-65
2023/10/18 08:43:32;;;;;;;3.87;3.57;;;9.50;1.00;;;;;;5032843;28;20388;-67
2023/10/18 08:46:05;;;;;;;3.63;3.20;;;9.70;1.00;;;;;;5030806;28;20416;-65
2023/10/18 08:48:38;;;;;;;3.37;3.07;;;9.70;1.00;;;;;;5032055;28;20792;-64
2023/10/18 08:51:05;;;;;;;3.83;3.17;;;9.80;1.00;;;;;;5032472;28;20470;-65
2023/10/18 08:53:31;;;;;;;3.13;2.83;;;9.90;1.00;;;;;;5032615;28;20405;-65
2023/10/18 08:55:58;;;;;;;2.80;2.60;;;10.00;1.00;;;;;;5032811;28;20414;-65
2023/10/18 08:58:30;;;;;;;6.27;3.40;;;10.10;1.00;;;;;;5036348;28;20391;-64
2023/10/18 09:03:28;;;;;;;2.90;2.70;;;10.60;1.00;;;;;;5036035;28;20365;-68
2023/10/18 09:06:05;;;;;;;3.20;2.90;;;11.00;1.00;;;;;;5035272;28;20511;-64
2023/10/18 09:08:36;;;;;;;5.43;3.37;;;11.30;1.00;;;;;;5036546;28;20413;-65
2023/10/18 09:11:21;;;;;;;4.80;2.77;;;11.60;1.00;;;;;;5036393;28;20432;-67
2023/10/18 09:16:35;;;;;;;4.83;2.70;;;11.80;1.00;;;;;;5035676;28;20843;-64
2023/10/18 09:19:01;;;;;;;3.00;2.80;;;11.80;1.00;;;;;;5036245;28;20451;-65
2023/10/18 09:21:36;;;;;;;5.50;2.50;;;11.70;1.00;;;;;;5034667;28;20417;-67
2023/10/18 09:24:06;;;;;;;2.50;2.30;;;11.60;1.00;;;;;;5036072;28;20171;-65
2023/10/18 09:26:40;;;;;;;2.90;1.80;;;11.70;1.00;;;;;;5035253;28;20430;-65
2023/10/18 09:29:08;;;;;;;3.83;2.10;;;11.70;1.00;;;;;;5036134;28;20410;-65
2023/10/18 09:31:34;;;;;;;3.67;2.47;;;11.60;1.00;;;;;;5036082;28;20455;-65
2023/10/18 09:34:07;;;;;;;3.23;2.10;;;11.60;1.00;;;;;;5035944;28;20381;-64
2023/10/18 09:36:42;;;;;;;2.67;2.47;;;11.70;1.00;;;;;;5035015;28;20397;-64
2023/10/18 09:39:09;;;;;;;6.03;2.70;;;11.70;1.00;;;;;;5036045;28;20397;-65
2023/10/18 09:41:37;;;;;;;5.33;2.53;;;11.80;1.00;;;;;;5035494;28;20377;-64
2023/10/18 09:44:04;;;;;;;3.77;2.30;;;12.00;1.00;;;;;;5035770;28;20440;-66
2023/10/18 09:46:31;;;;;;;3.40;2.63;;;12.20;1.00;;;;;;5034828;28;20408;-64
2023/10/18 09:48:58;;;;;;;6.20;2.83;;;12.60;1.00;;;;;;5035788;28;20433;-65
2023/10/18 09:51:24;;;;;;;3.30;2.97;;;12.90;1.00;;;;;;5035891;28;20504;-65
2023/10/18 09:53:50;;;;;;;5.47;2.53;;;13.40;1.00;;;;;;5035686;28;20395;-64
2023/10/18 09:56:27;;;;;;;2.93;2.70;;;13.80;1.00;;;;;;5034622;28;20394;-64
2023/10/18 09:59:04;;;;;;;4.27;2.40;;;14.20;1.00;;;;;;5035156;28;20373;-64
2023/10/18 10:01:53;;;;;;;3.87;2.77;;;14.60;1.00;;;;;;5034199;28;20927;-65
2023/10/18 10:04:21;;;;;;;3.60;2.80;;;15.20;1.00;;;;;;5035211;28;20429;-64
2023/10/18 10:06:52;;;;;;;4.23;2.80;;;15.70;1.00;;;;;;5033931;28;20426;-65
2023/10/18 10:09:28;;;;;;;4.33;2.53;;;15.90;1.00;;;;;;5035476;28;20509;-65
2023/10/18 10:11:54;;;;;;;4.30;1.87;;;16.30;1.00;;;;;;5035425;28;20560;-64
2023/10/18 10:14:23;;;;;;;5.67;3.00;;;16.50;1.00;;;;;;5034750;28;20406;-64
2023/10/18 10:16:58;;;;;;;2.13;1.90;;;16.50;1.00;;;;;;5034415;28;20425;-65
2023/10/18 10:19:31;;;;;;;2.90;2.40;;;16.50;1.00;;;;;;5035187;28;20575;-65
2023/10/18 10:22:06;;;;;;;2.10;1.90;;;16.10;1.00;;;;;;5035042;28;20427;-65
2023/10/18 10:24:43;;;;;;;2.70;2.17;;;15.80;1.00;;;;;;5034128;28;20406;-75
2023/10/18 10:30:47;;;;;;;2.60;1.93;;;14.80;99.90;;;;;;5034910;28;20452;-64
2023/10/18 10:32:53;;;;;;;2.43;2.03;;;14.10;99.90;;;;;;5033688;28;20890;-64
2023/10/18 10:35:24;;;;;;;3.73;2.33;;;13.80;99.90;;;;;;5034118;28;20485;-65
2023/10/18 10:37:54;;;;;;;3.80;2.53;;;13.60;99.90;;;;;;5034800;28;20413;-65
2023/10/18 10:43:09;;;;;;;2.47;2.27;;;13.50;99.90;;;;;;5034631;28;20390;-65
2023/10/18 10:51:12;;;;;;;3.03;2.83;;;13.50;99.90;;;;;;5034020;28;20406;-64
2023/10/18 10:54:07;;;;;;;2.80;2.40;;;13.50;99.90;;;;;;5034510;28;20420;-65
2023/10/18 10:56:33;;;;;;;3.00;2.27;;;13.60;99.90;;;;;;5033558;28;20889;-66
2023/10/18 11:01:43;;;;;;;2.57;2.47;;;13.60;99.90;;;;;;5034338;28;20380;-65
2023/10/18 11:04:14;;;;;;;3.40;2.37;;;13.60;99.90;;;;;;5034314;28;20401;-64
2023/10/18 11:06:44;;;;;;;2.37;2.20;;;13.50;99.90;;;;;;5033303;28;20425;-64
2023/10/18 11:09:16;;;;;;;2.70;1.70;;;13.50;99.90;;;;;;5034038;28;20430;-66
2023/10/18 11:11:45;;;;;;;3.33;2.20;;;13.60;99.90;;;;;;5034001;28;20438;-64
2023/10/18 11:14:22;;;;;;;2.70;2.47;;;13.60;99.90;;;;;;5034160;28;20402;-65
2023/10/18 11:16:56;;;;;;;1.97;1.80;;;13.80;99.90;;;;;;5033367;28;20446;-64
2023/10/18 11:19:28;;;;;;;1.53;1.43;;;13.90;99.90;;;;;;5033139;28;20454;-64
2023/10/18 11:21:54;;;;;;;1.60;1.50;;;14.00;99.90;;;;;;5034023;28;20377;-64
2023/10/18 11:24:21;;;;;;;1.90;1.53;;;14.00;99.90;;;;;;5033879;28;20399;-64
2023/10/18 11:26:51;;;;;;;1.40;1.30;;;14.00;99.90;;;;;;5032803;28;20418;-67
2023/10/18 11:29:24;;;;;;;4.20;2.00;;;13.90;99.90;;;;;;5033438;28;20919;-66
2023/10/18 11:31:55;;;;;;;1.67;1.37;;;13.80;99.90;;;;;;5033759;28;20810;-63
2023/10/18 11:34:22;;;;;;;1.40;1.30;;;13.70;99.90;;;;;;5033888;28;20417;-64
2023/10/18 11:36:51;;;;;;;2.03;1.83;;;13.60;99.90;;;;;;5032237;28;20943;-63
2023/10/18 11:39:18;;;;;;;2.13;1.80;;;13.70;99.90;;;;;;5043149;28;20918;-64
2023/10/18 11:41:49;;;;;;;3.50;1.70;;;13.80;99.90;;;;;;5033749;28;20389;-64
2023/10/18 11:44:32;;;;;;;2.50;2.30;;;13.90;99.90;;;;;;5033514;28;20415;-66
2023/10/18 11:47:30;;;;;;;2.47;2.20;;;13.80;99.90;;;;;;5033306;28;20422;-64
2023/10/18 11:49:57;;;;;;;2.13;1.93;;;13.70;99.90;;;;;;5033586;28;20404;-64
2023/10/18 11:52:25;;;;;;;1.97;1.77;;;13.90;99.90;;;;;;5033563;28;20508;-64
2023/10/18 11:55:00;;;;;;;1.70;1.60;;;13.80;99.90;;;;;;5032591;28;21080;-67
2023/10/18 11:57:31;;;;;;;1.80;1.70;;;13.80;99.90;;;;;;5032854;28;20427;-65
2023/10/18 12:02:43;;;;;;;3.40;1.50;;;13.90;99.90;;;;;;5051898;28;20528;-65
2023/10/18 12:05:10;;;;;;;1.83;1.30;;;13.90;99.90;;;;;;5046467;28;20438;-65
2023/10/18 12:07:44;;;;;;;2.47;1.67;;;14.00;99.90;;;;;;5033207;28;20409;-65
2023/10/18 12:10:16;;;;;;;1.53;1.30;;;14.10;99.90;;;;;;5033256;28;20408;-65
2023/10/18 12:12:42;;;;;;;3.93;1.63;;;14.10;99.90;;;;;;5033207;28;20449;-64
2023/10/18 12:15:09;;;;;;;3.87;1.40;;;14.10;99.90;;;;;;5032506;28;20448;-65
2023/10/18 12:17:34;;;;;;;1.80;1.70;;;14.00;99.90;;;;;;5033021;28;20194;-64
2023/10/18 12:20:00;;;;;;;2.50;1.33;;;13.90;99.90;;;;;;5033089;28;20402;-66
2023/10/18 12:22:26;;;;;;;1.40;1.27;;;13.90;99.90;;;;;;5032810;28;20217;-64
2023/10/18 12:24:52;;;;;;;2.43;1.63;;;14.00;99.90;;;;;;5032189;28;20472;-66
2023/10/18 12:27:35;;;;;;;1.67;1.57;;;13.90;99.90;;;;;;5033108;28;20726;-65
2023/10/18 12:32:52;;;;;;;1.63;1.53;;;13.80;99.90;;;;;;5035393;28;20492;-67
2023/10/18 12:35:21;;;;;;;4.17;1.53;;;14.00;99.90;;;;;;5034691;28;20430;-66
2023/10/18 12:37:51;;;;;;;1.50;1.30;;;14.20;99.90;;;;;;5036868;28;20460;-65
2023/10/18 12:40:28;;;;;;;2.53;1.30;;;14.40;99.90;;;;;;5035634;28;20398;-65
2023/10/18 12:43:00;;;;;;;1.00;0.90;;;14.60;99.90;;;;;;5036576;28;20398;-65
2023/10/18 12:45:27;;;;;;;1.50;1.27;;;14.90;99.90;;;;;;5035575;28;20432;-68
2023/10/18 12:47:53;;;;;;;1.40;1.30;;;15.30;99.90;;;;;;5035134;28;20992;-65
2023/10/18 12:50:19;;;;;;;1.27;1.17;;;15.50;99.90;;;;;;5036317;28;20498;-64
2023/10/18 12:52:47;;;;;;;1.40;1.07;;;16.00;99.90;;;;;;5036310;28;20792;-64
2023/10/18 12:55:32;;;;;;;1.10;0.83;;;16.60;99.90;;;;;;5035526;28;20409;-65
2023/10/18 12:57:59;;;;;;;1.23;1.00;;;17.10;99.90;;;;;;5036267;28;20445;-65
2023/10/18 13:00:26;;;;;;;2.60;1.33;;;17.00;99.90;;;;;;5035214;28;20421;-65
2023/10/18 13:05:21;;;;;;;4.87;1.03;;;16.00;99.90;;;;;;5035319;28;20426;-64
2023/10/18 13:07:52;;;;;;;1.67;1.27;;;15.60;99.90;;;;;;5035944;28;20450;-64
2023/10/18 13:10:35;;;;;;;1.57;1.47;;;15.30;99.90;;;;;;5036039;28;20887;-65
2023/10/18 13:13:04;;;;;;;2.93;1.10;;;15.30;99.90;;;;;;5035863;28;20444;-65
2023/10/18 13:15:33;;;;;;;1.30;1.13;;;15.40;99.90;;;;;;5034968;28;20436;-67
2023/10/18 13:17:59;;;;;;;1.60;1.40;;;15.50;99.90;;;;;;5035431;28;20410;-65
2023/10/18 13:20:24;;;;;;;2.33;1.57;;;15.40;99.90;;;;;;5035902;28;20406;-66
2023/10/18 13:22:57;;;;;;;2.60;1.43;;;15.20;99.90;;;;;;5035961;28;20460;-65
2023/10/18 13:25:26;;;;;;;5.50;1.17;;;15.10;99.90;;;;;;5035007;28;20175;-67
2023/10/18 13:27:54;;;;;;;2.07;1.63;;;14.90;99.90;;;;;;5035535;28;20434;-65
2023/10/18 13:30:33;;;;;;;1.77;1.63;;;14.60;99.90;;;;;;5034448;28;20915;-64
2023/10/18 13:33:01;;;;;;;3.00;1.50;;;14.20;99.90;;;;;;5035612;28;20456;-65
2023/10/18 13:35:34;;;;;;;2.10;1.70;;;14.00;99.90;;;;;;5034360;28;20398;-67
2023/10/18 13:38:00;;;;;;;1.70;1.60;;;14.00;99.90;;;;;;5035282;28;20818;-65
2023/10/18 13:40:27;;;;;;;9.23;1.73;;;14.00;99.90;;;;;;5034539;28;20406;-64
2023/10/18 13:42:54;;;;;;;1.47;1.37;;;14.00;99.90;;;;;;5034646;28;20164;-70
2023/10/18 13:45:27;;;;;;;2.97;1.23;;;14.00;99.90;;;;;;5033410;28;20418;-64
2023/10/18 13:47:53;;;;;;;1.57;1.47;;;13.90;99.90;;;;;;5035278;28;20434;-65
2023/10/18 13:50:18;;;;;;;1.57;1.47;;;13.80;99.90;;;;;;5035174;28;20410;-65
2023/10/18 13:52:47;;;;;;;1.43;1.23;;;13.70;99.90;;;;;;5033715;28;20241;-67
2023/10/18 13:55:14;;;;;;;3.67;1.70;;;13.60;99.90;;;;;;5033934;28;20213;-65
2023/10/18 13:57:40;;;;;;;2.20;1.50;;;13.60;99.90;;;;;;5035119;28;20862;-64
2023/10/18 14:00:09;;;;;;;4.60;1.50;;;13.60;99.90;;;;;;5035146;28;20479;-67
2023/10/18 14:02:38;;;;;;;1.90;1.80;;;13.40;99.90;;;;;;5035110;28;20406;-63
2023/10/18 14:05:10;;;;;;;1.57;1.47;;;13.20;99.90;;;;;;5034013;28;20445;-65
2023/10/18 14:07:36;;;;;;;2.27;1.43;;;13.30;99.90;;;;;;5033987;28;20419;-67
2023/10/18 14:10:27;;;;;;;1.47;1.37;;;13.30;99.90;;;;;;5034926;28;20755;-64
2023/10/18 14:12:54;;;;;;;2.60;1.50;;;13.30;99.90;;;;;;5034193;28;20282;-67
2023/10/18 14:15:20;;;;;;;2.37;1.63;;;13.20;99.90;;;;;;5033795;28;20644;-65
2023/10/18 14:17:55;;;;;;;2.13;1.37;;;13.30;99.90;;;;;;5034717;28;20527;-65
2023/10/18 14:20:32;;;;;;;3.00;1.37;;;13.20;99.90;;;;;;5033394;28;20637;-65
2023/10/18 14:22:59;;;;;;;4.03;1.50;;;13.20;99.90;;;;;;5033432;28;20940;-65